• Join FlightAware (Why Join?)
  • Login
  • US Flag 
06:48PM EDT


 

Airport Tracker/Info


-or-


 

Live Flight TrackerFlight Track Log ✈ FDX1254 ✈ 30-Apr-2013 ✈ KPVD - KFWA

Flight Track Log - Related Links

Times and Time Zones

All times are in EDT time to prevent confusion due to time zone crossing. See the FDX1254 flight status page for this flight to view local times or setup timezone preferences in your user account.

Time Position Orientation Groundspeed Altitude Reporting Facility
EDT Latitude Longitude Course Direction KTS MPH feet Rate Location/Type
09:18PM 41.7600 -71.6090 321° Northwest 282 325 7,900  Level FlightAware
09:18PM 41.7880 -71.6420 319° Northwest 292 336 9,300 1,860 Climbing FlightAware
09:19PM 41.8220 -71.6830 318° Northwest 338 389 9,800 1,200 Climbing FlightAware
09:19PM 41.8760 -71.7490 318° Northwest 392 451 10,800 2,460 Climbing FlightAware
09:20PM 41.9360 -71.8200 319° Northwest 394 453 13,300 3,600 Climbing FlightAware
09:21PM 42.0180 -71.9190 318° Northwest 417 480 16,500 3,300 Climbing FlightAware
09:22PM 42.0710 -72.0080 309° West 428 493 18,800 3,000 Climbing FlightAware
09:22PM 42.0830 -72.0870 282° West 438 504 20,300 2,580 Climbing FlightAware
09:23PM 42.0780 -72.2150 267° West 451 519 22,300 2,220 Climbing FlightAware
09:24PM 42.0770 -72.3130 269° West 456 525 23,900 1,080 Climbing FlightAware
09:24PM 42.0780 -72.4670 271° West 465 535 24,000 120 Climbing FlightAware
09:25PM 42.0790 -72.6100 271° West 467 537 24,100 1,080 Climbing FlightAware
09:26PM 42.0800 -72.7660 271° West 477 549 25,800 1,560 Climbing FlightAware
09:27PM 42.0810 -72.8760 271° West 483 556 26,500 1,380 Climbing FlightAware
09:27PM 42.0810 -72.9970 270° West 490 564 27,700 2,160 Climbing FlightAware
09:28PM 42.0810 -73.1360 270° West 480 552 29,600 2,580 Climbing FlightAware
09:29PM 42.0810 -73.2580 270° West 474 545 31,400 2,640 Climbing FlightAware
09:29PM 42.0810 -73.3600 270° West 468 539 32,900 2,100 Climbing FlightAware
09:30PM 42.0810 -73.4850 270° West 472 543 34,200 1,920 Climbing FlightAware
09:31PM 42.0810 -73.6260 270° West 469 540 35,800 2,160 Climbing FlightAware
09:31PM 42.0807 -73.6463 269° West 468 539 36,000 1,920 Climbing FlightAware ADS-B
09:31PM 42.0803 -73.7362 270° West 465 535 37,000 1,740 Climbing FlightAware ADS-B
09:32PM 42.0799 -73.8226 270° West 464 534 37,800 1,560 Climbing FlightAware ADS-B
09:33PM 42.0795 -73.9148 270° West 463 533 38,600 1,320 Climbing FlightAware ADS-B
09:33PM 42.0789 -74.0070 270° West 465 535 39,200 1,200 Climbing FlightAware ADS-B
09:34PM 42.0781 -74.1135 269° West 463 533 40,000 660 Climbing FlightAware ADS-B
09:34PM 42.0775 -74.2054 270° West 462 532 40,000  Level FlightAware ADS-B
09:35PM 42.0767 -74.2942 269° West 461 531 40,000  Level FlightAware ADS-B
09:35PM 42.0759 -74.3799 269° West 460 529 40,000  Level FlightAware ADS-B
09:36PM 42.0750 -74.4482 269° West 459 528 40,000  Level FlightAware ADS-B
09:36PM 42.0691 -74.5252 264° West 463 533 40,000  Level FlightAware ADS-B
09:37PM 42.0546 -74.6160 258° West 470 541 40,000  Level FlightAware ADS-B
09:37PM 42.0381 -74.7010 255° West 470 541 40,000  Level FlightAware ADS-B
09:38PM 42.0203 -74.7961 256° West 465 535 40,000  Level FlightAware ADS-B
09:38PM 42.0038 -74.8795 255° West 461 531 40,000  Level FlightAware ADS-B
09:39PM 41.9871 -74.9647 255° West 458 527 40,000  Level FlightAware ADS-B
09:39PM 41.9697 -75.0524 255° West 455 524 40,000  Level FlightAware ADS-B
09:40PM 41.9533 -75.1341 255° West 455 524 40,000  Level FlightAware ADS-B
09:40PM 41.9369 -75.2187 255° West 456 525 40,000  Level FlightAware ADS-B
09:41PM 41.9198 -75.3032 255° West 455 524 40,000  Level FlightAware ADS-B
09:41PM 41.9031 -75.3877 255° West 456 525 40,000  Level FlightAware ADS-B
09:42PM 41.8867 -75.4698 255° West 457 526 40,000  Level FlightAware ADS-B
09:42PM 41.8699 -75.5520 255° West 457 526 40,000  Level FlightAware ADS-B
09:43PM 41.8531 -75.6369 255° West 459 528 40,000  Level FlightAware ADS-B
09:43PM 41.8359 -75.7218 255° West 460 529 40,000  Level FlightAware ADS-B
09:44PM 41.8184 -75.8071 255° West 460 529 40,000  Level FlightAware ADS-B
09:44PM 41.8013 -75.8922 255° West 460 529 40,000  Level FlightAware ADS-B
09:45PM 41.7821 -75.9852 255° West 458 527 40,000  Level FlightAware ADS-B
09:45PM 41.7641 -76.0725 255° West 458 527 40,000  Level FlightAware ADS-B
09:46PM 41.7470 -76.1572 255° West 457 526 40,000  Level FlightAware ADS-B
09:46PM 41.7290 -76.2439 254° West 456 525 40,000  Level FlightAware ADS-B
09:47PM 41.7117 -76.3253 254° West 455 524 40,000  Level FlightAware ADS-B
09:47PM 41.6946 -76.4090 255° West 454 522 40,000  Level FlightAware ADS-B
09:48PM 41.6771 -76.4900 254° West 454 522 40,000  Level FlightAware ADS-B
09:49PM 41.6586 -76.5790 254° West 453 521 40,000  Level FlightAware ADS-B
09:49PM 41.6415 -76.6592 254° West 451 519 40,000  Level FlightAware ADS-B
09:50PM 41.6240 -76.7421 254° West 449 517 40,000  Level FlightAware ADS-B
09:50PM 41.6065 -76.8246 254° West 448 516 40,000  Level FlightAware ADS-B
09:51PM 41.5891 -76.9070 254° West 448 516 40,000  Level FlightAware ADS-B
09:51PM 41.5716 -76.9866 254° West 448 516 40,000  Level FlightAware ADS-B
09:52PM 41.5523 -77.0770 254° West 448 516 40,000  Level FlightAware ADS-B
09:52PM 41.5342 -77.1618 254° West 448 516 40,000  Level FlightAware ADS-B
09:53PM 41.5168 -77.2416 254° West 448 516 40,000  Level FlightAware ADS-B
09:53PM 41.4994 -77.3212 254° West 448 516 40,000  Level FlightAware ADS-B
09:54PM 41.4772 -77.4214 254° West 447 514 40,000  Level FlightAware ADS-B
09:55PM 41.4500 -77.5430 253° West 448 516 40,000  Level FlightAware
09:55PM 41.4270 -77.6510 254° West 447 514 40,000  Level FlightAware
09:56PM 41.4020 -77.7620 253° West 446 513 40,000  Level FlightAware
09:57PM 41.3780 -77.8670 253° West 445 512 40,000  Level FlightAware
09:57PM 41.3530 -77.9800 254° West 446 513 40,000  Level FlightAware
09:58PM 41.3280 -78.0930 254° West 447 514 40,000  Level FlightAware
09:59PM 41.3070 -78.1990 255° West 445 512 40,000  Level FlightAware
10:00PM 41.3010 -78.3240 266° West 445 512 40,000  Level FlightAware
10:00PM 41.3000 -78.4360 269° West 446 513 40,000  Level FlightAware
10:01PM 41.2980 -78.5400 269° West 446 513 40,000  Level FlightAware
10:02PM 41.2960 -78.6800 269° West 446 513 40,000  Level FlightAware
10:02PM 41.2950 -78.7670 269° West 446 513 40,000  Level FlightAware
10:03PM 41.2920 -78.8990 268° West 446 513 40,000  Level FlightAware
10:04PM 41.2900 -79.0110 269° West 446 513 40,000  Level FlightAware
10:04PM 41.2880 -79.1150 269° West 445 512 40,000  Level FlightAware
10:05PM 41.2860 -79.2430 269° West 445 512 40,000  Level FlightAware
10:06PM 41.2840 -79.3500 269° West 445 512 40,000  Level FlightAware
10:07PM 41.2810 -79.4720 268° West 445 512 40,000  Level FlightAware
10:07PM 41.2790 -79.5850 269° West 447 514 40,000  Level FlightAware
10:08PM 41.2760 -79.7080 268° West 447 514 40,000  Level FlightAware
10:09PM 41.2730 -79.8070 268° West 448 516 40,000  Level FlightAware
10:09PM 41.2700 -79.9190 268° West 449 517 40,000  Level FlightAware
10:10PM 41.2670 -80.0490 268° West 450 518 40,000  Level FlightAware
10:11PM 41.2640 -80.1600 268° West 451 519 40,000  Level FlightAware
10:12PM 41.2600 -80.2870 268° West 452 520 40,000  Level FlightAware
10:12PM 41.2560 -80.3950 267° West 452 520 40,000  Level FlightAware
10:13PM 41.2520 -80.5030 267° West 452 520 40,000  Level FlightAware
10:14PM 41.2470 -80.6310 267° West 452 520 40,000  Level FlightAware
10:14PM 41.2430 -80.7380 267° West 451 519 40,000  Level FlightAware
10:15PM 41.2370 -80.8680 267° West 450 518 40,000  Level FlightAware
10:16PM 41.2340 -80.9650 268° West 449 517 40,000  Level FlightAware
10:16PM 41.2270 -81.1100 266° West 446 513 40,000  Level FlightAware
10:17PM 41.2230 -81.2190 267° West 445 512 40,000  Level FlightAware
10:18PM 41.2180 -81.3230 266° West 446 513 40,000  Level FlightAware
10:19PM 41.2120 -81.4540 267° West 446 513 40,000  Level FlightAware
10:19PM 41.2070 -81.5640 267° West 446 513 40,000  Level FlightAware
10:20PM 41.2010 -81.6840 266° West 446 513 40,000  Level FlightAware
10:21PM 41.1960 -81.7850 266° West 447 514 40,000  Level FlightAware
10:21PM 41.1900 -81.9030 266° West 447 514 40,000 -1,020 Level FlightAware
10:22PM 41.1840 -82.0240 266° West 456 525 38,600 -1,440 Descending FlightAware
10:23PM 41.1780 -82.1430 266° West 464 534 38,000 -480 Descending FlightAware
10:23PM 41.1720 -82.2560 266° West 465 535 38,000 -600 Level FlightAware
10:24PM 41.1660 -82.3790 266° West 466 536 37,200 -1,200 Descending FlightAware
10:25PM 41.1590 -82.4990 266° West 474 545 36,300 -1,200 Descending FlightAware
10:25PM 41.1530 -82.6180 266° West 477 549 35,600 -1,020 Descending FlightAware
10:26PM 41.1450 -82.7440 265° West 476 548 34,900 -960 Descending FlightAware
10:27PM 41.1380 -82.8780 266° West 478 550 34,200 -960 Descending FlightAware
10:28PM 41.1310 -82.9860 265° West 480 552 33,600 -900 Descending FlightAware
10:28PM 41.1240 -83.1040 266° West 480 552 33,000 -960 Descending FlightAware
10:29PM 41.1160 -83.2440 266° West 479 551 32,300 -1,020 Descending FlightAware
10:30PM 41.1090 -83.3580 265° West 471 542 31,600 -2,400 Descending FlightAware
10:30PM 41.1000 -83.4930 265° West 479 551 28,900 -3,900 Descending FlightAware
10:31PM 41.0930 -83.6080 265° West 481 554 26,100 -3,900 Descending FlightAware
10:32PM 41.0850 -83.7230 265° West 465 535 23,700 -3,420 Descending FlightAware
10:33PM 41.0770 -83.8470 265° West 455 524 21,300 -3,360 Descending FlightAware
10:33PM 41.0690 -83.9560 264° West 438 504 19,000 -3,540 Descending FlightAware
10:34PM 41.0610 -84.0800 265° West 423 487 16,300 -3,360 Descending FlightAware
10:35PM 41.0540 -84.1760 265° West 409 471 14,300 -3,180 Descending FlightAware
10:35PM 41.0470 -84.2770 265° West 396 456 12,100 -2,400 Descending FlightAware
10:36PM 41.0400 -84.3810 265° West 383 441 10,900 -900 Descending FlightAware
10:37PM 41.0330 -84.4800 265° West 388 447 10,900  Level FlightAware
10:37PM 41.0260 -84.5700 264° West 379 436 10,900  Level FlightAware
10:38PM 41.0190 -84.6660 265° West 311 358 10,900 -240 Level FlightAware
10:39PM 41.0150 -84.7290 265° West 288 331 10,600 -540 Descending FlightAware
10:40PM 41.0380 -84.8270 287° West 283 326 10,000 -360 Descending FlightAware
10:40PM 41.0540 -84.8820 291° West 283 326 10,000  Level FlightAware
10:41PM 41.0700 -84.9370 291° West 283 326 10,000 -3,660 Level FlightAware
10:42PM 41.0903 -85.0550 291° West 262 302 3,100 -3,360 Descending Chicago Center
10:43PM 41.0469 -85.1033 220° Southwest 222 255 2,500 -780 Descending Chicago Center
10:44PM 41.0161 -85.1428 224° Southwest 183 211 1,600 -600 Descending Chicago Center
10:45PM 40.9836 -85.1850 224° Southwest 170 196 1,400 -240 Descending Chicago Center